createdAt,value
2022-08-03T00:01:05.630Z,18.00
2022-08-03T00:03:38.113Z,18.40
2022-08-03T00:06:10.708Z,17.10
2022-08-03T00:08:43.292Z,18.20
2022-08-03T00:11:15.773Z,17.70
2022-08-03T00:13:48.381Z,18.90
2022-08-03T00:16:24.035Z,19.80
2022-08-03T00:19:00.627Z,19.00
2022-08-03T00:21:33.019Z,19.70
2022-08-03T00:24:07.115Z,22.00
2022-08-03T00:26:40.009Z,20.60
2022-08-03T00:29:14.191Z,19.60
2022-08-03T00:31:59.175Z,19.80
2022-08-03T00:34:57.981Z,18.10
2022-08-03T00:37:41.417Z,19.60
2022-08-03T00:40:16.994Z,21.30
2022-08-03T00:42:54.808Z,18.80
2022-08-03T00:45:29.182Z,19.30
2022-08-03T00:48:01.965Z,20.90
2022-08-03T00:50:38.197Z,19.50
2022-08-03T00:53:12.196Z,20.10
2022-08-03T00:55:45.588Z,20.40
2022-08-03T00:58:18.271Z,19.10
2022-08-03T01:00:51.167Z,18.90
2022-08-03T01:03:23.938Z,18.40
2022-08-03T01:06:06.816Z,22.30
2022-08-03T01:08:48.611Z,21.00
2022-08-03T01:11:30.757Z,17.50
2022-08-03T01:14:19.029Z,17.50
2022-08-03T01:16:58.292Z,17.80
2022-08-03T01:19:46.543Z,19.50
2022-08-03T01:22:39.009Z,18.30
2022-08-03T01:25:18.345Z,17.50
2022-08-03T01:28:04.072Z,17.70
2022-08-03T01:30:39.874Z,16.80
2022-08-03T01:33:18.983Z,18.40
2022-08-03T01:35:57.961Z,16.10
2022-08-03T01:38:35.493Z,16.20
2022-08-03T01:41:12.067Z,18.10
2022-08-03T01:44:28.057Z,15.70
2022-08-03T01:46:47.736Z,17.40
2022-08-03T01:49:21.929Z,17.90
2022-08-03T01:52:03.231Z,19.00
2022-08-03T01:54:41.712Z,17.90
2022-08-03T01:57:14.934Z,17.50
2022-08-03T01:59:50.986Z,18.90
2022-08-03T02:02:34.046Z,17.80
2022-08-03T02:05:10.638Z,18.10
2022-08-03T02:07:46.344Z,19.50
2022-08-03T02:10:34.974Z,19.00
2022-08-03T02:13:11.984Z,16.70
2022-08-03T02:15:45.914Z,20.00
2022-08-03T02:18:22.815Z,22.30
2022-08-03T02:20:55.990Z,21.10
2022-08-03T02:23:28.413Z,19.40
2022-08-03T02:26:06.168Z,17.20
2022-08-03T02:28:42.321Z,19.20
2022-08-03T02:31:20.691Z,19.30
2022-08-03T02:33:57.392Z,20.20
2022-08-03T02:36:33.235Z,20.10
2022-08-03T02:39:07.538Z,22.40
2022-08-03T02:41:43.517Z,21.10
2022-08-03T02:44:18.629Z,21.60
2022-08-03T02:46:56.178Z,21.40
2022-08-03T02:49:40.790Z,19.80
2022-08-03T02:52:24.569Z,20.00
2022-08-03T02:55:01.783Z,21.90
2022-08-03T02:57:37.171Z,22.00
2022-08-03T03:00:11.836Z,23.60
2022-08-03T03:03:39.984Z,20.70
2022-08-03T03:06:39.447Z,20.10
2022-08-03T03:09:12.534Z,21.70
2022-08-03T03:11:45.422Z,21.10
2022-08-03T03:14:18.940Z,19.80
2022-08-03T03:17:07.761Z,21.90
2022-08-03T03:19:45.430Z,23.80
2022-08-03T03:22:18.970Z,21.30
2022-08-03T03:24:52.424Z,19.80
2022-08-03T03:27:25.271Z,19.00
2022-08-03T03:30:00.351Z,19.50
2022-08-03T03:32:33.347Z,19.40
2022-08-03T03:35:08.330Z,18.30
2022-08-03T03:37:40.506Z,22.60
2022-08-03T03:40:15.118Z,22.80
2022-08-03T03:42:47.702Z,19.90
2022-08-03T03:45:21.913Z,20.70
2022-08-03T03:47:54.281Z,20.30
2022-08-03T03:50:27.490Z,19.30
2022-08-03T03:52:59.812Z,23.60
2022-08-03T03:55:32.337Z,19.70
2022-08-03T03:58:05.046Z,22.10
2022-08-03T04:00:40.318Z,20.10
2022-08-03T04:03:14.533Z,21.80
2022-08-03T04:06:04.946Z,21.40
2022-08-03T04:08:57.566Z,24.40
2022-08-03T04:11:35.906Z,21.30
2022-08-03T04:14:12.278Z,21.40
2022-08-03T04:16:50.425Z,20.90
2022-08-03T04:19:28.248Z,20.00
2022-08-03T04:22:06.847Z,18.80
2022-08-03T04:24:49.673Z,18.50
2022-08-03T04:27:26.904Z,19.70
2022-08-03T04:30:00.954Z,19.10
2022-08-03T04:32:33.933Z,22.30
2022-08-03T04:35:07.955Z,23.00
2022-08-03T04:37:43.499Z,20.70
2022-08-03T04:40:23.648Z,19.80
2022-08-03T04:43:04.105Z,25.80
2022-08-03T04:45:37.080Z,27.70
2022-08-03T04:48:10.882Z,29.00
2022-08-03T04:50:48.328Z,24.70
2022-08-03T04:53:29.903Z,26.00
2022-08-03T04:56:10.816Z,28.90
2022-08-03T04:58:43.880Z,26.70
2022-08-03T05:01:17.654Z,28.80
2022-08-03T05:03:50.063Z,29.10
2022-08-03T05:06:22.235Z,33.00
2022-08-03T05:08:57.762Z,29.80
2022-08-03T05:11:30.376Z,35.80
2022-08-03T05:14:02.725Z,30.20
2022-08-03T05:16:40.355Z,33.30
2022-08-03T05:19:12.738Z,33.10
2022-08-03T05:21:52.386Z,29.90
2022-08-03T05:24:25.307Z,31.70
2022-08-03T05:26:57.509Z,30.50
2022-08-03T05:29:30.318Z,29.00
2022-08-03T05:32:08.039Z,31.70
2022-08-03T05:34:41.210Z,33.10
2022-08-03T05:37:14.189Z,29.60
2022-08-03T05:39:47.225Z,32.20
2022-08-03T05:42:19.703Z,31.60
2022-08-03T05:44:52.044Z,28.30
2022-08-03T05:47:24.652Z,29.60
2022-08-03T05:49:59.033Z,28.60
2022-08-03T05:52:31.322Z,27.70
2022-08-03T05:55:03.802Z,26.50
2022-08-03T05:57:36.466Z,24.60
2022-08-03T06:00:12.245Z,25.60
2022-08-03T06:02:47.341Z,26.00
2022-08-03T06:05:19.620Z,26.10
2022-08-03T06:07:53.568Z,24.30
2022-08-03T06:10:37.165Z,24.60
2022-08-03T06:13:13.069Z,22.90
2022-08-03T06:15:46.198Z,23.20
2022-08-03T06:18:19.264Z,24.10
2022-08-03T06:20:55.143Z,25.30
2022-08-03T06:23:54.276Z,24.40
2022-08-03T06:26:19.534Z,23.10
2022-08-03T06:28:53.944Z,23.10
2022-08-03T06:31:33.210Z,23.00
2022-08-03T06:34:33.404Z,22.70
2022-08-03T06:37:02.300Z,21.10
2022-08-03T06:39:35.045Z,22.30
2022-08-03T06:42:08.226Z,19.90
2022-08-03T06:44:42.140Z,19.70
2022-08-03T06:47:14.359Z,17.80
2022-08-03T06:50:12.747Z,18.90
2022-08-03T06:52:39.817Z,16.60
2022-08-03T06:55:12.940Z,16.90
2022-08-03T06:57:45.681Z,17.10
2022-08-03T07:00:19.763Z,17.60
2022-08-03T07:02:57.678Z,16.40
2022-08-03T07:05:34.040Z,19.80
2022-08-03T07:08:07.142Z,16.70
2022-08-03T07:10:39.522Z,16.50
2022-08-03T07:13:13.629Z,16.60
2022-08-03T07:15:55.782Z,17.40
2022-08-03T07:21:02.478Z,18.00
2022-08-03T07:23:34.733Z,17.60
2022-08-03T07:26:06.986Z,15.60
2022-08-03T07:28:39.216Z,12.80
2022-08-03T07:31:11.626Z,15.50
2022-08-03T07:33:43.797Z,11.20
2022-08-03T07:36:16.077Z,13.20
2022-08-03T07:38:48.445Z,10.60
2022-08-03T07:41:20.678Z,10.00
2022-08-03T07:43:56.075Z,13.50
2022-08-03T07:46:29.611Z,12.80
2022-08-03T07:49:04.687Z,13.50
2022-08-03T07:51:37.776Z,13.10
2022-08-03T07:54:10.448Z,15.80
2022-08-03T07:56:43.025Z,12.40
2022-08-03T07:59:15.354Z,13.30
2022-08-03T08:01:47.744Z,12.70
2022-08-03T08:04:19.995Z,18.40
2022-08-03T08:06:52.281Z,13.20
2022-08-03T08:09:24.947Z,12.00
2022-08-03T08:11:57.735Z,12.50
2022-08-03T08:14:30.104Z,12.50
2022-08-03T08:17:07.019Z,14.40
2022-08-03T08:19:41.467Z,13.20
2022-08-03T08:22:30.117Z,14.20
2022-08-03T08:25:03.851Z,13.90
2022-08-03T08:28:22.474Z,13.10
2022-08-03T08:30:35.083Z,13.00
2022-08-03T08:33:08.702Z,15.90
2022-08-03T08:35:57.548Z,12.70
2022-08-03T08:38:29.868Z,14.40
2022-08-03T08:41:02.371Z,14.60
2022-08-03T08:43:34.611Z,13.40
2022-08-03T08:46:08.733Z,13.10
2022-08-03T08:48:43.803Z,13.30
2022-08-03T08:51:17.548Z,16.00
2022-08-03T08:53:53.841Z,13.50
2022-08-03T08:56:28.835Z,13.80
2022-08-03T08:59:03.067Z,12.70
2022-08-03T09:01:35.970Z,15.00
2022-08-03T09:04:10.677Z,12.80
2022-08-03T09:07:04.432Z,13.50
2022-08-03T09:10:11.709Z,12.10
2022-08-03T09:12:41.881Z,12.10
2022-08-03T09:15:26.436Z,13.30
2022-08-03T09:18:00.336Z,13.70
2022-08-03T09:20:37.195Z,15.40
2022-08-03T09:23:58.989Z,12.70
2022-08-03T09:26:06.474Z,13.20
2022-08-03T09:29:00.703Z,12.20
2022-08-03T09:31:38.984Z,10.00
2022-08-03T09:34:18.462Z,11.20
2022-08-03T09:36:56.378Z,11.40
2022-08-03T09:39:41.962Z,11.50
2022-08-03T09:42:17.351Z,10.40
2022-08-03T09:44:52.253Z,9.90
2022-08-03T09:47:32.813Z,10.80
2022-08-03T09:50:08.577Z,10.60
2022-08-03T09:52:50.199Z,10.60
2022-08-03T09:56:34.857Z,11.30
2022-08-03T09:58:21.571Z,10.00
2022-08-03T10:00:58.071Z,10.20
2022-08-03T10:03:31.761Z,9.50
2022-08-03T10:06:19.728Z,9.30
2022-08-03T10:09:08.219Z,11.70
2022-08-03T10:11:42.248Z,8.90
2022-08-03T10:14:19.340Z,10.00
2022-08-03T10:16:52.472Z,9.20
2022-08-03T10:19:25.660Z,8.70
2022-08-03T10:22:02.429Z,8.70
2022-08-03T10:24:38.539Z,8.30
2022-08-03T10:27:12.677Z,8.80
2022-08-03T10:29:56.134Z,8.70
2022-08-03T10:32:32.728Z,9.00
2022-08-03T10:35:12.349Z,8.70
2022-08-03T10:37:59.214Z,9.50
2022-08-03T10:40:48.563Z,9.80
2022-08-03T10:43:27.395Z,9.10
2022-08-03T10:46:00.690Z,9.60
2022-08-03T10:48:35.602Z,9.30
2022-08-03T10:51:08.375Z,9.20
2022-08-03T10:53:54.170Z,8.60
2022-08-03T10:57:06.330Z,8.20
2022-08-03T11:00:04.851Z,8.70
2022-08-03T11:03:08.827Z,9.50
2022-08-03T11:05:43.403Z,8.60
2022-08-03T11:08:32.748Z,8.50
2022-08-03T11:11:28.513Z,9.00
2022-08-03T11:14:13.682Z,9.30
2022-08-03T11:16:48.455Z,8.80
2022-08-03T11:19:27.596Z,8.80
2022-08-03T11:22:01.068Z,8.50
2022-08-03T11:24:59.780Z,8.40
2022-08-03T11:27:35.248Z,8.50
2022-08-03T11:30:10.371Z,9.70
2022-08-03T11:33:13.485Z,9.00
2022-08-03T11:36:02.047Z,8.70
2022-08-03T11:38:35.473Z,8.60
2022-08-03T11:41:27.692Z,8.50
2022-08-03T11:43:59.965Z,11.40
2022-08-03T11:46:39.787Z,8.10
2022-08-03T11:49:13.036Z,8.30
2022-08-03T11:51:45.781Z,8.90
2022-08-03T11:54:22.829Z,9.00
2022-08-03T11:56:55.076Z,8.40
2022-08-03T11:59:38.765Z,7.70
2022-08-03T12:02:12.106Z,8.80
2022-08-03T12:04:54.587Z,8.10
2022-08-03T12:08:03.310Z,7.70
2022-08-03T12:10:21.274Z,7.80
2022-08-03T12:13:01.464Z,8.20
2022-08-03T12:15:35.381Z,8.00
2022-08-03T12:18:16.809Z,7.80
2022-08-03T12:20:50.374Z,8.30
2022-08-03T12:23:22.824Z,8.00
2022-08-03T12:26:02.404Z,9.00
2022-08-03T12:28:37.898Z,8.10
2022-08-03T12:31:11.184Z,7.90
2022-08-03T12:34:01.917Z,8.20
2022-08-03T12:36:36.589Z,7.60
2022-08-03T12:39:12.046Z,9.20
2022-08-03T12:41:45.022Z,8.10
2022-08-03T12:44:17.435Z,8.00
2022-08-03T12:46:58.594Z,8.10
2022-08-03T12:49:45.754Z,8.40
2022-08-03T12:52:23.058Z,8.90
2022-08-03T12:55:00.197Z,9.70
2022-08-03T12:57:45.909Z,9.20
2022-08-03T13:00:29.219Z,8.60
2022-08-03T13:06:00.058Z,8.10
2022-08-03T13:08:32.575Z,8.40
2022-08-03T13:11:21.435Z,8.70
2022-08-03T13:13:54.626Z,7.70
2022-08-03T13:16:27.400Z,7.40
2022-08-03T13:18:59.572Z,8.10
2022-08-03T13:21:33.138Z,8.40
2022-08-03T13:24:07.635Z,7.50
2022-08-03T13:26:40.623Z,9.00
2022-08-03T13:29:12.796Z,8.50
2022-08-03T13:31:51.177Z,7.50
2022-08-03T13:34:24.181Z,6.40
2022-08-03T13:37:08.995Z,6.70
2022-08-03T13:39:57.646Z,8.20
2022-08-03T13:42:34.603Z,8.00
2022-08-03T13:45:09.268Z,7.70
2022-08-03T13:47:41.465Z,7.20
2022-08-03T13:50:13.685Z,7.20
2022-08-03T13:52:46.905Z,6.90
2022-08-03T13:55:19.298Z,6.90
2022-08-03T13:58:03.733Z,6.80
2022-08-03T14:00:43.810Z,7.10
2022-08-03T14:03:15.971Z,8.70
2022-08-03T14:05:48.312Z,6.50
2022-08-03T14:08:20.529Z,6.70
2022-08-03T14:10:53.028Z,7.00
2022-08-03T14:13:25.245Z,6.70
2022-08-03T14:15:58.381Z,7.00
2022-08-03T14:18:33.516Z,7.10
2022-08-03T14:21:07.482Z,7.00
2022-08-03T14:23:40.179Z,6.80
2022-08-03T14:26:14.627Z,6.90
2022-08-03T14:28:46.849Z,6.70
2022-08-03T14:32:09.686Z,6.80
2022-08-03T14:34:11.311Z,7.30
2022-08-03T14:36:47.322Z,7.30
2022-08-03T14:39:19.822Z,7.60
2022-08-03T14:41:52.448Z,6.80
2022-08-03T14:44:24.512Z,7.30
2022-08-03T14:46:59.332Z,7.30
2022-08-03T14:50:38.500Z,6.70
2022-08-03T14:52:24.280Z,7.00
2022-08-03T14:54:56.592Z,7.10
2022-08-03T14:57:28.977Z,7.70
2022-08-03T15:00:02.486Z,6.40
2022-08-03T15:02:34.741Z,7.50
2022-08-03T15:05:08.064Z,6.40
2022-08-03T15:07:40.330Z,6.90
2022-08-03T15:10:15.121Z,7.60
2022-08-03T15:12:47.654Z,7.30
2022-08-03T15:15:19.731Z,6.80
2022-08-03T15:17:59.728Z,6.80
2022-08-03T15:20:43.735Z,7.10
2022-08-03T15:23:18.206Z,6.80
2022-08-03T15:26:02.301Z,8.50
2022-08-03T15:28:43.024Z,7.10
2022-08-03T15:31:19.014Z,8.10
2022-08-03T15:33:51.824Z,7.30
2022-08-03T15:36:24.802Z,6.90
2022-08-03T15:38:57.034Z,8.00
2022-08-03T15:41:29.585Z,8.00
2022-08-03T15:44:05.196Z,9.10
2022-08-03T15:46:41.115Z,10.60
2022-08-03T15:49:13.234Z,6.80
2022-08-03T15:51:45.375Z,8.30
2022-08-03T15:54:17.511Z,6.80
2022-08-03T15:56:49.942Z,8.70
2022-08-03T15:59:22.838Z,9.40
2022-08-03T16:01:57.395Z,8.30
2022-08-03T16:04:29.609Z,7.20
2022-08-03T16:07:01.935Z,7.90
2022-08-03T16:09:42.113Z,7.70
2022-08-03T16:12:16.865Z,7.90
2022-08-03T16:14:53.468Z,7.70
2022-08-03T16:17:26.568Z,8.00
2022-08-03T16:20:07.433Z,7.80
2022-08-03T16:22:47.954Z,7.40
2022-08-03T16:25:21.057Z,9.30
2022-08-03T16:28:00.317Z,8.20
2022-08-03T16:30:43.518Z,7.80
2022-08-03T16:33:17.848Z,8.40
2022-08-03T16:35:53.022Z,39.20
2022-08-03T16:38:25.644Z,8.40
2022-08-03T16:41:02.403Z,8.00
2022-08-03T16:43:41.749Z,14.10
2022-08-03T16:46:15.249Z,8.70
2022-08-03T16:48:47.618Z,8.10
2022-08-03T16:51:20.890Z,8.10
2022-08-03T16:54:07.917Z,9.10
2022-08-03T16:56:44.708Z,10.10
2022-08-03T16:59:17.398Z,10.20
2022-08-03T17:01:51.032Z,8.80
2022-08-03T17:04:23.470Z,12.90
2022-08-03T17:06:56.591Z,8.90
2022-08-03T17:09:38.173Z,8.30
2022-08-03T17:12:11.781Z,8.90
2022-08-03T17:14:44.157Z,9.30
2022-08-03T17:17:22.473Z,9.40
2022-08-03T17:19:55.577Z,10.30
2022-08-03T17:22:33.352Z,9.40
2022-08-03T17:25:09.202Z,9.10
2022-08-03T17:28:51.102Z,9.80
2022-08-03T17:31:23.151Z,9.10
2022-08-03T17:33:58.287Z,9.10
2022-08-03T17:37:02.027Z,9.00
2022-08-03T17:39:48.427Z,8.90
2022-08-03T17:42:39.138Z,8.60
2022-08-03T17:45:15.486Z,9.60
2022-08-03T17:47:57.486Z,9.80
2022-08-03T17:50:42.578Z,11.40
2022-08-03T17:53:23.988Z,9.40
2022-08-03T17:56:44.464Z,10.00
2022-08-03T17:59:13.205Z,10.40
2022-08-03T18:02:15.259Z,9.80
2022-08-03T18:05:16.535Z,9.60
2022-08-03T18:08:00.775Z,10.00
2022-08-03T18:10:49.762Z,9.40
2022-08-03T18:13:30.484Z,10.40
2022-08-03T18:18:43.170Z,9.10
2022-08-03T18:21:17.706Z,9.10
2022-08-03T18:23:52.336Z,9.30
2022-08-03T18:26:25.991Z,10.00
2022-08-03T18:28:58.800Z,9.70
2022-08-03T18:32:03.607Z,11.90
2022-08-03T18:34:32.904Z,10.20
2022-08-03T18:37:08.172Z,9.80
2022-08-03T18:42:35.664Z,10.80
2022-08-03T18:45:14.627Z,10.40
2022-08-03T18:48:10.074Z,10.50
2022-08-03T18:50:49.694Z,10.10
2022-08-03T18:54:02.293Z,10.80
2022-08-03T18:56:33.181Z,10.90
2022-08-03T18:59:16.609Z,10.80
2022-08-03T19:02:09.152Z,10.10
2022-08-03T19:05:00.581Z,10.20
2022-08-03T19:10:10.884Z,10.40
2022-08-03T19:12:51.599Z,10.50
2022-08-03T19:15:36.104Z,10.00
2022-08-03T19:18:12.431Z,11.00
2022-08-03T19:20:54.794Z,11.20
2022-08-03T19:23:30.896Z,11.40
2022-08-03T19:26:30.671Z,10.90
2022-08-03T19:29:02.089Z,11.00
2022-08-03T19:31:38.110Z,12.10
2022-08-03T19:34:13.559Z,11.10
2022-08-03T19:36:52.361Z,12.00
2022-08-03T19:39:28.032Z,12.60
2022-08-03T19:42:20.469Z,12.20
2022-08-03T19:45:10.936Z,12.90
2022-08-03T19:47:52.626Z,13.00
2022-08-03T19:50:25.108Z,15.00
2022-08-03T19:53:00.658Z,14.30
2022-08-03T19:55:34.154Z,13.90
2022-08-03T19:58:08.623Z,14.60
2022-08-03T20:00:51.428Z,14.60
2022-08-03T20:03:27.659Z,15.30
2022-08-03T20:06:22.264Z,15.90
2022-08-03T20:08:55.041Z,15.80
2022-08-03T20:11:31.105Z,15.40
2022-08-03T20:14:26.207Z,15.20
2022-08-03T20:16:59.365Z,15.50
2022-08-03T20:19:35.155Z,14.60
2022-08-03T20:22:14.372Z,14.80
2022-08-03T20:24:52.735Z,15.00
2022-08-03T20:27:30.084Z,14.30
2022-08-03T20:30:07.233Z,14.40
2022-08-03T20:32:41.560Z,13.70
2022-08-03T20:35:15.717Z,13.70
2022-08-03T20:37:47.982Z,14.40
2022-08-03T20:40:20.401Z,14.30
2022-08-03T20:42:55.481Z,14.20
2022-08-03T20:45:59.125Z,15.10
2022-08-03T20:48:22.167Z,14.60
2022-08-03T20:50:56.415Z,15.60
2022-08-03T20:53:56.787Z,14.40
2022-08-03T20:56:22.761Z,14.90
2022-08-03T20:59:05.482Z,15.10
2022-08-03T21:01:39.499Z,14.70
2022-08-03T21:07:09.790Z,14.50
2022-08-03T21:09:55.399Z,15.70
2022-08-03T21:12:37.293Z,14.50
2022-08-03T21:12:58.867Z,10.10
2022-08-03T21:13:07.969Z,15.10
2022-08-03T21:16:06.615Z,14.80
2022-08-03T21:18:15.200Z,15.50
2022-08-03T21:20:50.308Z,22.40
2022-08-03T21:23:39.914Z,15.20
2022-08-03T21:26:17.289Z,16.10
2022-08-03T21:28:57.883Z,15.00
2022-08-03T21:31:33.676Z,14.90
2022-08-03T21:34:07.984Z,15.40
2022-08-03T21:36:40.255Z,14.80
2022-08-03T21:39:13.332Z,17.70
2022-08-03T21:41:45.585Z,14.60
2022-08-03T21:44:25.130Z,14.00
2022-08-03T21:47:03.391Z,15.10
2022-08-03T21:50:05.077Z,15.50
2022-08-03T21:52:33.589Z,14.90
2022-08-03T21:55:08.379Z,14.80
2022-08-03T21:57:54.470Z,15.40
2022-08-03T22:00:26.958Z,15.60
2022-08-03T22:03:17.447Z,16.40
2022-08-03T22:05:50.804Z,16.60
2022-08-03T22:08:23.495Z,16.40
2022-08-03T22:10:55.652Z,15.40
2022-08-03T22:13:43.337Z,14.80
2022-08-03T22:16:18.074Z,15.10
2022-08-03T22:18:50.581Z,15.20
2022-08-03T22:21:35.799Z,15.60
2022-08-03T22:24:09.906Z,16.40
2022-08-03T22:27:05.913Z,15.70
2022-08-03T22:29:41.086Z,15.90
2022-08-03T22:32:13.355Z,16.40
2022-08-03T22:34:49.472Z,15.60
2022-08-03T22:37:26.113Z,17.00
2022-08-03T22:39:59.975Z,17.20
2022-08-03T22:42:35.077Z,17.90
2022-08-03T22:45:10.373Z,18.10
2022-08-03T22:48:03.053Z,18.70
2022-08-03T22:50:36.494Z,20.80
2022-08-03T22:53:09.476Z,18.70
2022-08-03T22:55:43.043Z,17.10
2022-08-03T22:58:17.126Z,17.80
2022-08-03T23:00:55.627Z,17.70
2022-08-03T23:04:01.092Z,17.50
2022-08-03T23:06:27.767Z,18.30
2022-08-03T23:09:03.769Z,19.10
2022-08-03T23:11:45.189Z,17.40
2022-08-03T23:14:21.772Z,19.70
2022-08-03T23:16:57.988Z,19.40
2022-08-03T23:19:30.801Z,18.70
2022-08-03T23:22:07.116Z,18.00
2022-08-03T23:25:03.760Z,19.30
2022-08-03T23:27:38.561Z,19.90
2022-08-03T23:30:13.319Z,19.60
2022-08-03T23:32:46.953Z,19.50
2022-08-03T23:36:22.701Z,19.50
2022-08-03T23:38:40.069Z,19.40
2022-08-03T23:41:13.596Z,20.00
2022-08-03T23:43:53.710Z,20.70
2022-08-03T23:46:30.312Z,18.00
2022-08-03T23:49:03.530Z,18.40
2022-08-03T23:51:48.957Z,18.00
2022-08-03T23:54:33.649Z,17.20
2022-08-03T23:57:14.359Z,17.50
2022-08-03T23:59:57.888Z,19.50
